Orbital elements of COSMOS 970 DEB
| Launched | 20 December 1977 |
| Flight ended | – |
| Launch site | Tyuratam Missile and Space Center, Kazakhstan (Also known as Baikonur Cosmodrome) |
| Owner | Commonwealth of Independent States (former USSR) |
| NORAD ID | 13504 |
| Date fetched |
Epoch osculation |
Inc. [°] |
Ecc. | RA asc node [hr] |
Arg Peri. [°] |
Mean anom [°] |
Mean motion [rev/day] |
Abs. mag |
| Date fetched |
Epoch osculation |
Inc. [°] |
Ecc. | RA asc node [hr] |
Arg Peri. [°] |
Mean anom [°] |
Mean motion [rev/day] |
Abs. mag |
| 2026 May 03 17:57 | 2026 Apr 30 14:45:24 | 66.1168 | 0.01979 | 14.6393 | 159.6004 | 316.9393 | 13.77508 | – |
| 2026 May 02 17:57 | 2026 Apr 30 14:45:24 | 66.1168 | 0.01979 | 14.6393 | 159.6004 | 316.9393 | 13.77508 | – |
| 2026 May 01 17:56 | 2026 Apr 30 14:45:24 | 66.1168 | 0.01979 | 14.6393 | 159.6004 | 316.9393 | 13.77508 | – |
| 2026 Apr 30 17:56 | 2026 Apr 30 14:45:24 | 66.1168 | 0.01979 | 14.6393 | 159.6004 | 316.9393 | 13.77508 | – |
| 2026 Apr 29 17:57 | 2026 Apr 24 12:15:02 | 66.1167 | 0.01984 | 15.6385 | 162.9941 | 316.9393 | 13.77508 | – |
| 2026 Apr 28 17:56 | 2026 Apr 24 12:15:02 | 66.1167 | 0.01984 | 15.6385 | 162.9941 | 316.9393 | 13.77508 | – |
| 2026 Apr 27 17:58 | 2026 Apr 24 12:15:02 | 66.1167 | 0.01984 | 15.6385 | 162.9941 | 316.9393 | 13.77508 | – |
| 2026 Apr 26 17:58 | 2026 Apr 24 12:15:02 | 66.1167 | 0.01984 | 15.6385 | 162.9941 | 316.9393 | 13.77508 | – |
| 2026 Apr 25 17:58 | 2026 Apr 24 12:15:02 | 66.1167 | 0.01984 | 15.6385 | 162.9941 | 316.9393 | 13.77508 | – |
| 2026 Apr 24 17:59 | 2026 Apr 24 12:15:02 | 66.1167 | 0.01984 | 15.6385 | 162.9941 | 316.9393 | 13.77508 | – |
| 2026 Apr 23 17:57 | 2026 Apr 18 15:09:23 | 66.1160 | 0.01989 | 16.6009 | 166.2534 | 316.9393 | 13.77508 | – |
| 2026 Apr 22 17:57 | 2026 Apr 18 15:09:23 | 66.1160 | 0.01989 | 16.6009 | 166.2534 | 316.9393 | 13.77508 | – |
| 2026 Apr 21 17:57 | 2026 Apr 18 15:09:23 | 66.1160 | 0.01989 | 16.6009 | 166.2534 | 316.9393 | 13.77508 | – |
| 2026 Apr 20 17:57 | 2026 Apr 18 15:09:23 | 66.1160 | 0.01989 | 16.6009 | 166.2534 | 316.9393 | 13.77508 | – |
| 2026 Apr 19 17:58 | 2026 Apr 18 15:09:23 | 66.1160 | 0.01989 | 16.6009 | 166.2534 | 316.9393 | 13.77508 | – |
| 2026 Apr 18 17:56 | 2026 Apr 12 19:50:02 | 66.1157 | 0.01993 | 17.5512 | 169.4606 | 316.9393 | 13.77508 | – |
| 2026 Apr 16 17:57 | 2026 Apr 12 19:50:02 | 66.1157 | 0.01993 | 17.5512 | 169.4606 | 316.9393 | 13.77508 | – |
| 2026 Apr 14 17:57 | 2026 Apr 12 19:50:02 | 66.1157 | 0.01993 | 17.5512 | 169.4606 | 316.9393 | 13.77508 | – |
| 2026 Apr 13 17:57 | 2026 Apr 12 19:50:02 | 66.1157 | 0.01993 | 17.5512 | 169.4606 | 316.9393 | 13.77508 | – |
| 2026 Apr 12 17:57 | 2026 Apr 08 14:35:11 | 66.1154 | 0.01996 | 18.2418 | 171.7984 | 316.9393 | 13.77508 | – |
| 2026 Apr 11 17:57 | 2026 Apr 08 14:35:11 | 66.1154 | 0.01996 | 18.2418 | 171.7984 | 316.9393 | 13.77508 | – |
| 2026 Apr 10 17:58 | 2026 Apr 08 14:35:11 | 66.1154 | 0.01996 | 18.2418 | 171.7984 | 316.9393 | 13.77508 | – |
| 2026 Apr 09 18:01 | 2026 Apr 08 14:35:11 | 66.1154 | 0.01996 | 18.2418 | 171.7984 | 316.9393 | 13.77508 | – |
| 2026 Apr 08 17:57 | 2026 Apr 08 14:35:11 | 66.1154 | 0.01996 | 18.2418 | 171.7984 | 316.9393 | 13.77508 | – |
| 2026 Apr 07 17:57 | 2026 Apr 01 20:16:36 | 66.1157 | 0.02002 | 19.3490 | 175.5338 | 316.9393 | 13.77508 | – |
| 2026 Apr 06 17:57 | 2026 Apr 01 20:16:36 | 66.1157 | 0.02002 | 19.3490 | 175.5338 | 316.9393 | 13.77508 | – |